createdAt,value
2022-08-18T00:00:49.243Z,24.06
2022-08-18T00:04:50.825Z,24.04
2022-08-18T00:08:58.719Z,23.94
2022-08-18T00:13:01.371Z,23.87
2022-08-18T00:17:03.240Z,23.87
2022-08-18T00:21:05.548Z,23.87
2022-08-18T00:25:09.988Z,23.74
2022-08-18T00:29:11.420Z,23.83
2022-08-18T00:33:12.871Z,23.77
2022-08-18T00:37:14.415Z,23.72
2022-08-18T00:41:16.001Z,23.77
2022-08-18T00:45:25.487Z,23.45
2022-08-18T00:49:26.987Z,23.28
2022-08-18T00:53:35.514Z,23.43
2022-08-18T00:57:36.989Z,23.43
2022-08-18T01:01:41.718Z,23.04
2022-08-18T01:05:50.242Z,22.91
2022-08-18T01:09:52.429Z,22.93
2022-08-18T01:13:53.952Z,22.72
2022-08-18T01:18:15.187Z,22.61
2022-08-18T01:22:37.252Z,22.69
2022-08-18T01:26:46.434Z,22.73
2022-08-18T01:30:51.151Z,23.08
2022-08-18T01:34:52.612Z,22.70
2022-08-18T01:38:54.223Z,22.66
2022-08-18T01:42:56.495Z,22.79
2022-08-18T01:46:57.991Z,22.61
2022-08-18T01:51:00.396Z,22.71
2022-08-18T01:55:03.104Z,22.50
2022-08-18T01:59:10.476Z,22.39
2022-08-18T02:03:14.489Z,22.64
2022-08-18T02:07:16.125Z,22.68
2022-08-18T02:11:19.585Z,22.55
2022-08-18T02:15:21.031Z,22.58
2022-08-18T02:19:22.550Z,22.75
2022-08-18T02:23:24.859Z,22.34
2022-08-18T02:27:28.144Z,22.07
2022-08-18T02:31:29.634Z,22.15
2022-08-18T02:35:31.224Z,22.21
2022-08-18T02:39:35.364Z,22.21
2022-08-18T02:43:38.705Z,22.12
2022-08-18T02:47:40.295Z,22.16
2022-08-18T02:51:44.250Z,22.16
2022-08-18T02:55:46.426Z,22.10
2022-08-18T02:59:48.366Z,22.17
2022-08-18T03:03:50.467Z,21.95
2022-08-18T03:07:52.018Z,21.46
2022-08-18T03:11:53.683Z,21.32
2022-08-18T03:15:56.952Z,21.48
2022-08-18T03:19:58.537Z,21.78
2022-08-18T03:24:03.958Z,21.87
2022-08-18T03:28:12.358Z,21.55
2022-08-18T03:32:13.824Z,21.59
2022-08-18T03:36:18.633Z,21.64
2022-08-18T03:40:20.361Z,21.61
2022-08-18T03:44:23.783Z,21.64
2022-08-18T03:48:25.354Z,21.46
2022-08-18T03:52:27.071Z,21.40
2022-08-18T03:56:38.872Z,21.28
2022-08-18T04:00:41.236Z,21.11
2022-08-18T04:04:43.177Z,21.08
2022-08-18T04:08:46.191Z,21.02
2022-08-18T04:12:47.685Z,20.91
2022-08-18T04:16:50.174Z,20.84
2022-08-18T04:20:54.597Z,20.87
2022-08-18T04:25:01.518Z,20.98
2022-08-18T04:29:04.715Z,21.07
2022-08-18T04:33:06.341Z,21.22
2022-08-18T04:37:09.723Z,21.06
2022-08-18T04:41:13.352Z,20.96
2022-08-18T04:45:14.795Z,20.83
2022-08-18T04:49:17.662Z,21.09
2022-08-18T04:53:48.211Z,21.56
2022-08-18T04:57:52.268Z,21.61
2022-08-18T05:01:53.852Z,21.78
2022-08-18T05:05:58.350Z,21.79
2022-08-18T05:09:59.858Z,21.56
2022-08-18T05:14:04.016Z,21.22
2022-08-18T05:18:05.991Z,21.37
2022-08-18T05:22:10.480Z,21.28
2022-08-18T05:26:14.759Z,21.55
2022-08-18T05:30:16.752Z,21.54
2022-08-18T05:34:22.066Z,21.37
2022-08-18T05:38:58.880Z,21.67
2022-08-18T05:43:00.811Z,22.00
2022-08-18T05:47:08.532Z,21.74
2022-08-18T05:51:20.352Z,22.06
2022-08-18T05:55:55.012Z,22.38
2022-08-18T05:59:57.800Z,22.64
2022-08-18T06:04:14.674Z,23.06
2022-08-18T06:08:18.765Z,22.71
2022-08-18T06:12:46.887Z,23.09
2022-08-18T06:17:04.434Z,23.21
2022-08-18T06:21:28.582Z,22.75
2022-08-18T06:25:35.902Z,23.07
2022-08-18T06:29:47.391Z,23.69
2022-08-18T06:34:11.190Z,23.77
2022-08-18T06:38:40.273Z,23.98
2022-08-18T06:42:42.229Z,23.80
2022-08-18T06:46:56.283Z,23.84
2022-08-18T06:51:01.483Z,24.03
2022-08-18T06:55:09.548Z,24.23
2022-08-18T06:59:19.954Z,24.36
2022-08-18T07:03:24.884Z,24.37
2022-08-18T07:07:39.922Z,24.67
2022-08-18T07:12:02.826Z,24.95
2022-08-18T07:16:47.119Z,25.06
2022-08-18T07:20:54.540Z,25.36
2022-08-18T07:25:03.021Z,24.99
2022-08-18T07:29:15.970Z,24.81
2022-08-18T07:33:24.150Z,24.67
2022-08-18T07:37:51.079Z,24.88
2022-08-18T07:42:01.796Z,24.89
2022-08-18T07:46:15.986Z,25.08
2022-08-18T07:50:36.330Z,25.07
2022-08-18T07:55:02.050Z,25.07
2022-08-18T07:59:16.231Z,25.28
2022-08-18T08:03:48.669Z,25.24
2022-08-18T08:08:01.706Z,25.31
2022-08-18T08:12:31.157Z,25.17
2022-08-18T08:16:49.156Z,25.50
2022-08-18T08:21:10.931Z,25.39
2022-08-18T08:25:42.898Z,25.47
2022-08-18T08:29:53.222Z,25.30
2022-08-18T08:34:17.491Z,26.07
2022-08-18T08:38:43.106Z,25.85
2022-08-18T08:42:54.910Z,26.45
2022-08-18T08:47:07.953Z,26.03
2022-08-18T08:51:38.978Z,26.32
2022-08-18T08:55:52.999Z,26.45
2022-08-18T08:59:57.830Z,27.10
2022-08-18T09:04:30.801Z,27.04
2022-08-18T09:08:46.720Z,27.23
2022-08-18T09:13:29.177Z,27.33
2022-08-18T09:17:45.223Z,27.69
2022-08-18T09:21:52.515Z,27.84
2022-08-18T09:25:57.088Z,27.93
2022-08-18T09:30:02.229Z,28.21
2022-08-18T09:34:12.925Z,28.38
2022-08-18T09:38:40.356Z,28.57
2022-08-18T09:42:54.675Z,28.78
2022-08-18T09:46:59.475Z,28.31
2022-08-18T09:51:17.441Z,28.76
2022-08-18T09:55:19.022Z,29.34
2022-08-18T09:59:32.389Z,29.60
2022-08-18T10:03:36.157Z,30.38
2022-08-18T10:07:43.947Z,29.44
2022-08-18T10:12:01.634Z,28.97
2022-08-18T10:16:31.156Z,30.02
2022-08-18T10:20:51.028Z,30.44
2022-08-18T10:24:56.035Z,31.15
2022-08-18T10:29:03.952Z,31.81
2022-08-18T10:33:17.796Z,31.70
2022-08-18T10:37:36.145Z,31.53
2022-08-18T10:41:43.921Z,31.88
2022-08-18T10:46:24.487Z,31.99
2022-08-18T10:50:23.286Z,31.87
2022-08-18T10:59:16.127Z,32.30
2022-08-18T11:03:52.196Z,32.68
2022-08-18T11:12:51.698Z,32.87
2022-08-18T11:17:08.512Z,33.83
2022-08-18T11:21:42.126Z,34.40
2022-08-18T11:25:44.943Z,34.30
2022-08-18T11:29:47.010Z,34.33
2022-08-18T11:33:51.269Z,34.67
2022-08-18T11:38:13.649Z,34.61
2022-08-18T11:42:38.810Z,34.93
2022-08-18T11:46:40.796Z,34.33
2022-08-18T11:50:54.688Z,34.70
2022-08-18T11:55:16.769Z,34.85
2022-08-18T12:03:54.156Z,33.68
2022-08-18T12:07:57.770Z,34.56
2022-08-18T12:12:28.217Z,34.75
2022-08-18T12:16:40.049Z,35.26
2022-08-18T12:20:49.352Z,33.83
2022-08-18T12:24:53.949Z,34.06
2022-08-18T12:28:55.517Z,34.34
2022-08-18T12:33:10.222Z,34.15
2022-08-18T12:37:57.736Z,34.16
2022-08-18T12:41:39.545Z,34.94
2022-08-18T12:45:41.722Z,34.39
2022-08-18T12:49:43.540Z,34.69
2022-08-18T12:53:58.379Z,35.55
2022-08-18T12:58:03.890Z,35.12
2022-08-18T13:02:05.451Z,35.27
2022-08-18T13:06:07.767Z,35.54
2022-08-18T13:10:09.824Z,34.67
2022-08-18T13:14:31.311Z,33.67
2022-08-18T13:18:32.782Z,33.90
2022-08-18T13:22:34.545Z,34.40
2022-08-18T13:26:39.590Z,34.15
2022-08-18T13:30:43.214Z,33.04
2022-08-18T13:34:45.276Z,34.00
2022-08-18T13:38:54.685Z,34.84
2022-08-18T13:42:57.121Z,34.31
2022-08-18T13:46:58.653Z,33.73
2022-08-18T13:51:02.018Z,33.12
2022-08-18T13:55:11.675Z,32.68
2022-08-18T13:59:14.592Z,32.68
2022-08-18T14:03:42.892Z,32.47
2022-08-18T14:07:45.210Z,32.75
2022-08-18T14:11:51.290Z,32.96
2022-08-18T14:15:55.897Z,33.39
2022-08-18T14:20:21.730Z,34.39
2022-08-18T14:24:44.163Z,36.03
2022-08-18T14:28:50.728Z,35.13
2022-08-18T14:32:54.401Z,35.00
2022-08-18T14:36:59.512Z,34.66
2022-08-18T14:41:05.099Z,33.64
2022-08-18T14:45:17.468Z,33.37
2022-08-18T14:49:31.109Z,33.08
2022-08-18T14:53:36.901Z,33.64
2022-08-18T14:57:39.461Z,33.25
2022-08-18T15:01:43.433Z,32.80
2022-08-18T15:05:48.372Z,32.50
2022-08-18T15:09:49.927Z,32.53
2022-08-18T15:14:11.687Z,31.86
2022-08-18T15:18:13.205Z,31.76
2022-08-18T15:22:33.648Z,31.70
2022-08-18T15:26:38.412Z,31.90
2022-08-18T15:30:44.511Z,31.75
2022-08-18T15:34:51.286Z,31.62
2022-08-18T15:38:53.425Z,31.29
2022-08-18T15:43:02.059Z,31.21
2022-08-18T15:47:04.740Z,31.14
2022-08-18T15:51:12.119Z,31.18
2022-08-18T15:55:13.947Z,31.26
2022-08-18T15:59:16.166Z,31.15
2022-08-18T16:03:20.455Z,31.45
2022-08-18T16:07:32.378Z,31.73
2022-08-18T16:11:42.581Z,31.26
2022-08-18T16:15:46.852Z,31.49
2022-08-18T16:19:49.394Z,31.39
2022-08-18T16:23:53.210Z,31.41
2022-08-18T16:27:55.423Z,30.91
2022-08-18T16:31:56.878Z,30.14
2022-08-18T16:36:06.648Z,29.25
2022-08-18T16:40:08.770Z,28.77
2022-08-18T16:44:10.272Z,28.21
2022-08-18T16:48:16.642Z,27.58
2022-08-18T16:52:19.625Z,27.21
2022-08-18T16:56:27.482Z,26.82
2022-08-18T17:00:55.278Z,26.67
2022-08-18T17:05:02.277Z,26.41
2022-08-18T17:09:09.915Z,26.26
2022-08-18T17:13:11.791Z,25.90
2022-08-18T17:17:13.446Z,25.95
2022-08-18T17:21:18.630Z,25.80
2022-08-18T17:25:24.393Z,25.58
2022-08-18T17:29:34.271Z,25.69
2022-08-18T17:33:40.747Z,25.78
2022-08-18T17:37:49.329Z,25.47
2022-08-18T17:42:09.443Z,25.40
2022-08-18T17:46:28.569Z,25.30
2022-08-18T17:50:58.493Z,24.86
2022-08-18T17:55:10.756Z,24.93
2022-08-18T17:59:42.858Z,25.08
2022-08-18T18:03:49.028Z,24.98
2022-08-18T18:07:50.470Z,24.90
2022-08-18T18:11:52.590Z,24.82
2022-08-18T18:16:11.983Z,24.52
2022-08-18T18:20:26.068Z,24.76
2022-08-18T18:24:33.001Z,24.64
2022-08-18T18:28:35.919Z,24.84
2022-08-18T18:33:03.013Z,24.76
2022-08-18T18:37:22.129Z,24.75
2022-08-18T18:41:27.830Z,24.54
2022-08-18T18:45:30.927Z,24.52
2022-08-18T18:49:50.458Z,24.13
2022-08-18T18:54:22.455Z,24.20
2022-08-18T18:58:23.863Z,24.50
2022-08-18T19:02:55.270Z,24.04
2022-08-18T19:07:21.420Z,24.01
2022-08-18T19:11:22.912Z,24.16
2022-08-18T19:15:25.841Z,23.95
2022-08-18T19:19:36.923Z,23.93
2022-08-18T19:23:49.283Z,23.76
2022-08-18T19:27:59.241Z,23.83
2022-08-18T19:32:38.565Z,24.19
2022-08-18T19:36:48.321Z,23.81
2022-08-18T19:41:00.307Z,23.68
2022-08-18T19:45:41.073Z,24.01
2022-08-18T19:50:03.636Z,23.40
2022-08-18T19:54:18.486Z,23.54
2022-08-18T19:58:58.817Z,23.31
2022-08-18T20:03:33.460Z,23.37
2022-08-18T20:07:54.815Z,23.61
2022-08-18T20:12:17.850Z,23.29
2022-08-18T20:16:44.368Z,23.30
2022-08-18T20:21:15.622Z,23.36
2022-08-18T20:25:17.636Z,22.70
2022-08-18T20:29:39.195Z,22.14
2022-08-18T20:33:46.702Z,22.25
2022-08-18T20:37:48.208Z,22.37
2022-08-18T20:41:50.604Z,21.77
2022-08-18T20:46:17.386Z,21.78
2022-08-18T20:50:33.933Z,21.52
2022-08-18T20:54:57.049Z,21.85
2022-08-18T20:59:18.474Z,21.52
2022-08-18T21:03:20.874Z,21.83
2022-08-18T21:07:35.962Z,21.41
2022-08-18T21:11:46.816Z,21.47
2022-08-18T21:15:49.242Z,21.54
2022-08-18T21:19:50.840Z,21.72
2022-08-18T21:23:55.276Z,21.20
2022-08-18T21:27:57.236Z,21.61
2022-08-18T21:32:21.712Z,21.20
2022-08-18T21:36:25.577Z,21.59
2022-08-18T21:40:35.108Z,21.57
2022-08-18T21:44:44.368Z,21.69
2022-08-18T21:48:48.964Z,21.64
2022-08-18T21:53:00.161Z,21.56
2022-08-18T21:57:19.566Z,21.67
2022-08-18T22:01:25.077Z,21.22
2022-08-18T22:05:59.142Z,21.16
2022-08-18T22:10:39.680Z,21.08
2022-08-18T22:14:53.957Z,21.46
2022-08-18T22:19:08.569Z,21.36
2022-08-18T22:23:31.691Z,21.67
2022-08-18T22:27:33.470Z,21.74
2022-08-18T22:31:41.305Z,21.73
2022-08-18T22:35:44.995Z,21.70
2022-08-18T22:39:57.148Z,21.36
2022-08-18T22:43:58.702Z,21.60
2022-08-18T22:48:00.310Z,21.35
2022-08-18T22:52:02.233Z,21.50
2022-08-18T22:56:07.263Z,21.62
2022-08-18T23:00:12.781Z,21.46
2022-08-18T23:04:20.046Z,21.17
2022-08-18T23:08:21.754Z,21.31
2022-08-18T23:12:40.185Z,20.86
2022-08-18T23:16:45.487Z,20.90
2022-08-18T23:20:48.770Z,21.01
2022-08-18T23:24:50.177Z,20.85
2022-08-18T23:28:52.578Z,20.95
2022-08-18T23:32:55.016Z,21.26
2022-08-18T23:37:00.833Z,21.16
2022-08-18T23:41:02.312Z,20.93
2022-08-18T23:45:05.430Z,21.14
2022-08-18T23:49:09.222Z,21.04
2022-08-18T23:53:15.105Z,21.13
2022-08-18T23:57:16.564Z,20.89
